Avila Beach, California
Current Conditions -  °F | °C
As of 7:56 PM on Wednesday 26 Nov 2014 (Local Time) from KSBP Reporting Station
Clear Clear  
Wind Chill: 55°   Ceiling: Unl
Heat Index: 55°   Visibility: 10mi
Dew Point: 37°   Wind: 0mph
Humidity: 51%   Direction: NA
Pressure: 30.18"   Gusts: NA
Location:  35.18°N, 120.73°W
Report Text: KSBP 270356Z 00000KT 10SM CLR 13/03 A3018 RMK AO2 SLP221 T01280028
Loading
Personal Weather Stations






























Interactive Weather Map New forecast layout! Learn more

10-Day Weather Forecast

Advertisements
Track Severe Weather on mobile